createdAt,value
2022-08-23T00:02:05.470Z,89066.09
2022-08-23T00:04:39.746Z,89066.22
2022-08-23T00:07:23.788Z,89063.50
2022-08-23T00:09:51.258Z,89063.50
2022-08-23T00:12:21.195Z,89069.09
2022-08-23T00:14:51.267Z,89063.34
2022-08-23T00:17:25.613Z,89076.94
2022-08-23T00:20:07.245Z,89065.34
2022-08-23T00:27:37.067Z,89068.31
2022-08-23T00:30:07.159Z,89072.91
2022-08-23T00:32:37.289Z,89071.03
2022-08-23T00:35:06.107Z,89071.63
2022-08-23T00:37:33.687Z,89071.31
2022-08-23T00:40:00.983Z,89076.63
2022-08-23T00:42:30.705Z,89076.19
2022-08-23T00:45:01.139Z,89073.31
2022-08-23T00:47:28.048Z,89079.06
2022-08-23T00:50:05.726Z,89070.72
2022-08-23T00:53:04.716Z,89073.19
2022-08-23T00:55:32.801Z,89073.44
2022-08-23T00:58:00.278Z,89077.56
2022-08-23T01:00:28.075Z,89086.06
2022-08-23T01:02:55.595Z,89078.47
2022-08-23T01:05:28.406Z,89072.31
2022-08-23T01:07:58.913Z,89074.84
2022-08-23T01:10:32.693Z,89075.56
2022-08-23T01:13:07.843Z,89067.22
2022-08-23T01:15:42.085Z,89075.41
2022-08-23T01:18:11.613Z,89071.09
2022-08-23T01:21:10.303Z,89074.69
2022-08-23T01:23:55.500Z,89068.25
2022-08-23T01:26:24.096Z,89071.19
2022-08-23T01:28:53.213Z,89069.34
2022-08-23T01:31:22.449Z,89072.66
2022-08-23T01:33:57.093Z,89077.66
2022-08-23T01:36:24.342Z,89073.69
2022-08-23T01:38:51.204Z,89074.41
2022-08-23T01:41:18.227Z,89073.38
2022-08-23T01:43:45.490Z,89070.91
2022-08-23T01:46:18.083Z,89068.00
2022-08-23T01:48:47.509Z,89062.88
2022-08-23T01:51:16.058Z,89069.03
2022-08-23T01:53:43.448Z,89069.63
2022-08-23T01:56:10.732Z,89072.34
2022-08-23T01:58:37.706Z,89064.72
2022-08-23T02:01:05.116Z,89060.03
2022-08-23T02:03:33.643Z,89071.31
2022-08-23T02:06:01.046Z,89074.34
2022-08-23T02:08:27.926Z,89076.47
2022-08-23T02:10:55.316Z,89073.03
2022-08-23T02:13:22.594Z,89079.44
2022-08-23T02:15:50.764Z,89070.41
2022-08-23T02:18:19.875Z,89072.66
2022-08-23T02:20:49.090Z,89076.69
2022-08-23T02:23:16.019Z,89068.50
2022-08-23T02:25:42.873Z,89074.53
2022-08-23T02:28:10.240Z,89071.38
2022-08-23T02:30:37.108Z,89071.22
2022-08-23T02:33:05.007Z,89073.38
2022-08-23T02:35:33.509Z,89077.25
2022-08-23T02:38:08.351Z,89078.44
2022-08-23T02:40:35.977Z,89074.81
2022-08-23T02:43:03.974Z,89080.97
2022-08-23T02:45:30.906Z,89076.81
2022-08-23T02:47:57.801Z,89076.53
2022-08-23T02:50:25.824Z,89084.69
2022-08-23T02:52:53.946Z,89089.25
2022-08-23T02:55:21.357Z,89091.09
2022-08-23T02:57:48.201Z,89086.94
2022-08-23T03:00:17.928Z,89102.41
2022-08-23T03:02:44.987Z,89094.97
2022-08-23T03:05:13.545Z,89098.97
2022-08-23T03:07:41.510Z,89104.41
2022-08-23T03:10:09.228Z,89092.81
2022-08-23T03:12:36.400Z,89098.66
2022-08-23T03:15:05.724Z,89112.41
2022-08-23T03:17:32.690Z,89112.41
2022-08-23T03:19:59.658Z,89109.53
2022-08-23T03:22:26.724Z,89114.97
2022-08-23T03:24:53.689Z,89112.72
2022-08-23T03:27:20.635Z,89116.63
2022-08-23T03:29:47.551Z,89114.75
2022-08-23T03:32:15.561Z,89125.94
2022-08-23T03:34:42.700Z,89124.84
2022-08-23T03:37:09.654Z,89120.41
2022-08-23T03:39:37.014Z,89127.16
2022-08-23T03:42:04.366Z,89129.38
2022-08-23T03:44:31.330Z,89136.72
2022-08-23T03:46:58.222Z,89131.03
2022-08-23T03:49:25.301Z,89131.19
2022-08-23T03:51:52.300Z,89138.41
2022-08-23T03:54:19.307Z,89142.13
2022-08-23T03:56:59.209Z,89134.53
2022-08-23T03:59:27.641Z,89135.13
2022-08-23T04:01:54.846Z,89140.03
2022-08-23T04:04:22.270Z,89138.91
2022-08-23T04:06:49.388Z,89131.38
2022-08-23T04:09:17.445Z,89139.13
2022-08-23T04:11:44.933Z,89138.69
2022-08-23T04:14:12.030Z,89139.69
2022-08-23T04:16:39.514Z,89143.44
2022-08-23T04:19:12.083Z,89148.59
2022-08-23T04:21:42.692Z,89152.44
2022-08-23T04:24:09.696Z,89148.09
2022-08-23T04:26:36.616Z,89155.84
2022-08-23T04:29:03.741Z,89157.41
2022-08-23T04:31:34.483Z,89157.50
2022-08-23T04:34:02.301Z,89158.47
2022-08-23T04:36:35.885Z,89157.25
2022-08-23T04:39:03.673Z,89160.09
2022-08-23T04:41:30.580Z,89161.63
2022-08-23T04:43:57.563Z,89156.38
2022-08-23T04:46:24.773Z,89158.09
2022-08-23T04:48:51.815Z,89166.53
2022-08-23T04:51:18.973Z,89173.50
2022-08-23T04:53:46.397Z,89164.66
2022-08-23T04:56:13.199Z,89164.56
2022-08-23T04:58:40.243Z,89170.81
2022-08-23T05:01:09.809Z,89171.53
2022-08-23T05:03:37.269Z,89174.19
2022-08-23T05:06:05.206Z,89172.97
2022-08-23T05:08:32.982Z,89181.91
2022-08-23T05:11:05.510Z,89178.63
2022-08-23T05:13:34.869Z,89188.75
2022-08-23T05:16:02.172Z,89179.94
2022-08-23T05:18:29.065Z,89187.38
2022-08-23T05:20:56.438Z,89191.06
2022-08-23T05:23:25.948Z,89184.84
2022-08-23T05:25:59.503Z,89197.97
2022-08-23T05:28:29.732Z,89195.81
2022-08-23T05:31:02.147Z,89182.72
2022-08-23T05:33:31.520Z,89195.56
2022-08-23T05:35:59.124Z,89189.47
2022-08-23T05:38:26.755Z,89189.91
2022-08-23T05:40:56.801Z,89191.69
2022-08-23T05:43:26.852Z,89205.97
2022-08-23T05:46:14.265Z,89201.53
2022-08-23T05:48:46.221Z,89200.97
2022-08-23T05:51:18.295Z,89202.72
2022-08-23T05:53:46.604Z,89206.13
2022-08-23T05:56:23.678Z,89202.75
2022-08-23T05:58:59.169Z,89213.34
2022-08-23T06:01:28.664Z,89214.38
2022-08-23T06:03:55.620Z,89209.34
2022-08-23T06:06:22.520Z,89207.03
2022-08-23T06:09:03.990Z,89210.66
2022-08-23T06:11:30.946Z,89213.75
2022-08-23T06:14:00.506Z,89212.41
2022-08-23T06:16:30.637Z,89207.00
2022-08-23T06:18:58.266Z,89214.13
2022-08-23T06:21:26.084Z,89219.78
2022-08-23T06:23:53.425Z,89215.88
2022-08-23T06:26:25.197Z,89214.78
2022-08-23T06:28:56.850Z,89226.44
2022-08-23T06:31:25.654Z,89224.63
2022-08-23T06:33:55.943Z,89217.19
2022-08-23T06:36:25.443Z,89223.50
2022-08-23T06:38:52.306Z,89227.31
2022-08-23T06:41:19.201Z,89223.00
2022-08-23T06:43:48.931Z,89226.97
2022-08-23T06:46:25.923Z,89229.00
2022-08-23T06:48:57.476Z,89228.22
2022-08-23T06:51:30.134Z,89233.81
2022-08-23T06:54:03.005Z,89228.94
2022-08-23T06:56:30.855Z,89225.63
2022-08-23T06:58:58.050Z,89229.84
2022-08-23T07:01:48.482Z,89232.97
2022-08-23T07:04:19.013Z,89221.28
2022-08-23T07:06:46.415Z,89229.31
2022-08-23T07:09:13.369Z,89224.63
2022-08-23T07:11:40.275Z,89238.00
2022-08-23T07:14:11.468Z,89229.03
2022-08-23T07:16:42.864Z,89231.28
2022-08-23T07:19:09.805Z,89231.28
2022-08-23T07:21:38.131Z,89238.31
2022-08-23T07:24:05.957Z,89225.97
2022-08-23T07:26:33.554Z,89232.28
2022-08-23T07:29:00.645Z,89230.44
2022-08-23T07:31:31.124Z,89220.03
2022-08-23T07:34:00.323Z,89222.50
2022-08-23T07:36:29.392Z,89225.34
2022-08-23T07:38:57.095Z,89219.22
2022-08-23T07:41:26.687Z,89222.09
2022-08-23T07:43:53.806Z,89219.59
2022-08-23T07:46:20.884Z,89222.75
2022-08-23T07:48:54.390Z,89222.75
2022-08-23T07:51:21.983Z,89229.69
2022-08-23T07:53:48.831Z,89225.19
2022-08-23T07:56:17.349Z,89208.34
2022-08-23T07:58:44.421Z,89230.22
2022-08-23T08:01:16.916Z,89234.00
2022-08-23T08:03:45.900Z,89222.75
2022-08-23T08:06:19.115Z,89226.06
2022-08-23T08:08:46.578Z,89230.47
2022-08-23T08:11:15.133Z,89231.50
2022-08-23T08:13:44.547Z,89227.06
2022-08-23T08:16:24.288Z,89223.91
2022-08-23T08:18:51.370Z,89220.72
2022-08-23T08:21:19.042Z,89224.19
2022-08-23T08:23:46.742Z,89195.59
2022-08-23T08:26:13.947Z,89218.44
2022-08-23T08:28:41.580Z,89228.94
2022-08-23T08:31:10.134Z,89224.97
2022-08-23T08:33:37.385Z,89217.53
2022-08-23T08:36:05.384Z,89214.66
2022-08-23T08:38:32.922Z,89211.13
2022-08-23T08:41:09.690Z,89223.31
2022-08-23T08:44:01.470Z,89219.34
2022-08-23T08:46:50.694Z,89223.91
2022-08-23T08:49:57.876Z,89222.97
2022-08-23T08:52:32.342Z,89207.84
2022-08-23T08:55:17.406Z,89221.25
2022-08-23T08:57:46.276Z,89219.19
2022-08-23T09:00:16.021Z,89218.84
2022-08-23T09:02:43.283Z,89214.41
2022-08-23T09:05:18.738Z,89216.91
2022-08-23T09:08:01.883Z,89217.56
2022-08-23T09:10:38.016Z,89215.44
2022-08-23T09:13:14.139Z,89207.59
2022-08-23T09:15:56.666Z,89198.16
2022-08-23T09:18:24.170Z,89208.13
2022-08-23T09:20:54.240Z,89209.75
2022-08-23T09:23:26.330Z,89210.44
2022-08-23T09:26:03.066Z,89208.28
2022-08-23T09:28:33.973Z,89195.09
2022-08-23T09:31:01.122Z,89200.47
2022-08-23T09:33:40.966Z,89201.53
2022-08-23T09:36:16.370Z,89192.91
2022-08-23T09:39:00.758Z,89203.16
2022-08-23T09:41:39.725Z,89200.75
2022-08-23T09:44:09.957Z,89193.88
2022-08-23T09:46:38.369Z,89206.00
2022-08-23T09:49:25.665Z,89197.16
2022-08-23T09:51:54.921Z,89196.16
2022-08-23T09:54:34.443Z,89204.47
2022-08-23T09:57:04.359Z,89193.50
2022-08-23T09:59:45.562Z,89185.81
2022-08-23T10:02:34.959Z,89193.31
2022-08-23T10:05:07.329Z,89180.28
2022-08-23T10:07:42.942Z,89189.53
2022-08-23T10:10:27.901Z,89175.78
2022-08-23T10:12:56.558Z,89178.06
2022-08-23T10:15:51.979Z,89174.59
2022-08-23T10:18:41.353Z,89177.59
2022-08-23T10:21:18.988Z,89171.91
2022-08-23T10:23:56.729Z,89173.59
2022-08-23T10:26:34.724Z,89173.13
2022-08-23T10:29:08.245Z,89176.28
2022-08-23T10:31:41.451Z,89186.69
2022-08-23T10:34:38.982Z,89181.81
2022-08-23T10:37:43.509Z,89169.25
2022-08-23T10:41:14.634Z,89173.38
2022-08-23T10:44:18.348Z,89177.25
2022-08-23T10:47:22.068Z,89172.75
2022-08-23T10:49:52.630Z,89181.41
2022-08-23T10:52:27.155Z,89178.84
2022-08-23T10:54:59.198Z,89167.09
2022-08-23T10:57:33.906Z,89163.47
2022-08-23T11:00:05.029Z,89163.94
2022-08-23T11:02:40.420Z,89167.22
2022-08-23T11:05:29.480Z,89164.44
2022-08-23T11:08:11.443Z,89157.88
2022-08-23T11:10:38.332Z,89162.00
2022-08-23T11:13:11.123Z,89165.28
2022-08-23T11:16:05.334Z,89154.78
2022-08-23T11:18:39.953Z,89153.84
2022-08-23T11:21:27.052Z,89160.16
2022-08-23T11:24:14.858Z,89155.38
2022-08-23T11:26:44.692Z,89156.22
2022-08-23T11:29:11.538Z,89158.22
2022-08-23T11:31:43.570Z,89150.56
2022-08-23T11:34:25.823Z,89142.91
2022-08-23T11:37:21.590Z,89143.00
2022-08-23T11:40:00.544Z,89135.41
2022-08-23T11:42:30.483Z,89128.31
2022-08-23T11:44:57.861Z,89137.13
2022-08-23T11:47:38.913Z,89129.47
2022-08-23T11:50:33.846Z,89139.78
2022-08-23T11:53:09.863Z,89133.34
2022-08-23T11:55:53.644Z,89130.25
2022-08-23T11:58:28.151Z,89127.41
2022-08-23T12:00:55.055Z,89126.53
2022-08-23T12:03:34.913Z,89123.53
2022-08-23T12:06:12.611Z,89114.69
2022-08-23T12:08:48.720Z,89125.34
2022-08-23T12:11:20.049Z,89122.06
2022-08-23T12:13:58.357Z,89116.59
2022-08-23T12:16:25.272Z,89126.69
2022-08-23T12:19:00.404Z,89115.47
2022-08-23T12:21:34.514Z,89105.88
2022-08-23T12:24:13.732Z,89113.00
2022-08-23T12:27:12.665Z,89116.16
2022-08-23T12:30:06.784Z,89107.72
2022-08-23T12:32:36.645Z,89101.88
2022-08-23T12:35:28.900Z,89107.75
2022-08-23T12:38:01.657Z,89104.66
2022-08-23T12:40:32.757Z,89121.56
2022-08-23T12:43:08.036Z,89107.72
2022-08-23T12:45:41.786Z,89102.19
2022-08-23T12:48:11.770Z,89107.03
2022-08-23T12:50:42.911Z,89093.19
2022-08-23T12:53:14.276Z,89098.41
2022-08-23T12:55:51.325Z,89096.69
2022-08-23T12:58:31.777Z,89088.47
2022-08-23T13:01:05.675Z,89093.78
2022-08-23T13:03:39.764Z,89086.44
2022-08-23T13:06:13.504Z,89084.44
2022-08-23T13:09:12.684Z,89073.84
2022-08-23T13:11:40.563Z,89085.31
2022-08-23T13:14:25.628Z,89078.72
2022-08-23T13:16:53.587Z,89088.72
2022-08-23T13:19:29.868Z,89084.69
2022-08-23T13:22:19.941Z,89076.50
2022-08-23T13:27:59.077Z,89081.31
2022-08-23T13:30:33.021Z,89075.72
2022-08-23T13:33:08.887Z,89084.28
2022-08-23T13:35:42.388Z,89081.88
2022-08-23T13:38:20.507Z,89075.19
2022-08-23T13:41:07.677Z,89074.53
2022-08-23T13:43:49.840Z,89077.50
2022-08-23T13:46:29.763Z,89089.41
2022-08-23T13:49:04.806Z,89086.06
2022-08-23T13:51:31.627Z,89088.28
2022-08-23T13:54:02.274Z,89082.47
2022-08-23T13:56:31.332Z,89078.34
2022-08-23T13:59:16.959Z,89077.69
2022-08-23T14:01:43.986Z,89076.44
2022-08-23T14:04:10.905Z,89077.88
2022-08-23T14:06:37.762Z,89071.00
2022-08-23T14:09:04.893Z,89083.56
2022-08-23T14:11:32.271Z,89075.56
2022-08-23T14:13:59.641Z,89077.72
2022-08-23T14:16:33.623Z,89073.59
2022-08-23T14:19:54.662Z,89078.81
2022-08-23T14:21:49.745Z,89085.97
2022-08-23T14:24:18.808Z,89076.72
2022-08-23T14:26:50.151Z,89079.22
2022-08-23T14:29:18.609Z,89068.72
2022-08-23T14:31:48.538Z,89074.09
2022-08-23T14:34:15.520Z,89076.69
2022-08-23T14:37:21.543Z,89072.88
2022-08-23T14:39:29.571Z,89069.88
2022-08-23T14:41:56.853Z,89066.94
2022-08-23T14:44:23.714Z,89075.16
2022-08-23T14:46:50.605Z,89063.28
2022-08-23T14:49:17.828Z,89068.63
2022-08-23T14:51:46.468Z,89057.88
2022-08-23T14:54:25.505Z,89065.66
2022-08-23T14:56:53.336Z,89068.69
2022-08-23T14:59:20.535Z,89071.63
2022-08-23T15:01:49.411Z,89065.13
2022-08-23T15:04:19.659Z,89066.72
2022-08-23T15:07:14.061Z,89060.84
2022-08-23T15:09:34.133Z,89061.72
2022-08-23T15:14:48.526Z,89056.94
2022-08-23T15:17:15.624Z,89053.78
2022-08-23T15:19:42.530Z,89052.41
2022-08-23T15:22:18.811Z,89060.06
2022-08-23T15:24:49.247Z,89067.53
2022-08-23T15:27:16.879Z,89065.19
2022-08-23T15:29:43.786Z,89067.78
2022-08-23T15:32:12.742Z,89068.91
2022-08-23T15:34:45.706Z,89065.97
2022-08-23T15:37:14.243Z,89064.44
2022-08-23T15:39:42.317Z,89066.94
2022-08-23T15:42:09.446Z,89064.09
2022-08-23T15:44:36.428Z,89064.59
2022-08-23T15:47:09.755Z,89075.41
2022-08-23T15:49:36.744Z,89065.50
2022-08-23T15:52:04.842Z,89066.66
2022-08-23T15:54:32.304Z,89071.97
2022-08-23T15:56:59.298Z,89067.00
2022-08-23T15:59:26.378Z,89078.50
2022-08-23T16:01:53.673Z,89080.28
2022-08-23T16:04:20.510Z,89080.06
2022-08-23T16:06:47.730Z,89079.16
2022-08-23T16:09:21.386Z,89094.75
2022-08-23T16:11:49.067Z,89093.13
2022-08-23T16:14:16.533Z,89091.38
2022-08-23T16:16:44.455Z,89090.53
2022-08-23T16:19:11.395Z,89086.91
2022-08-23T16:21:38.714Z,89098.31
2022-08-23T16:24:06.877Z,89091.78
2022-08-23T16:26:37.095Z,89095.66
2022-08-23T16:29:09.101Z,89096.06
2022-08-23T16:31:38.963Z,89090.25
2022-08-23T16:34:09.339Z,89103.78
2022-08-23T16:36:36.849Z,89103.59
2022-08-23T16:39:05.263Z,89102.03
2022-08-23T16:41:35.401Z,89103.88
2022-08-23T16:44:02.355Z,89109.66
2022-08-23T16:46:29.169Z,89106.69
2022-08-23T16:48:56.328Z,89109.84
2022-08-23T16:51:23.697Z,89109.63
2022-08-23T16:54:01.488Z,89114.91
2022-08-23T16:56:31.864Z,89119.59
2022-08-23T16:58:59.177Z,89124.28
2022-08-23T17:01:26.736Z,89121.28
2022-08-23T17:03:54.058Z,89123.94
2022-08-23T17:06:21.154Z,89128.63
2022-08-23T17:08:48.004Z,89135.31
2022-08-23T17:11:18.930Z,89133.06
2022-08-23T17:13:46.358Z,89142.41
2022-08-23T17:16:13.328Z,89146.25
2022-08-23T17:18:40.803Z,89139.56
2022-08-23T17:21:08.622Z,89144.38
2022-08-23T17:23:40.450Z,89153.22
2022-08-23T17:26:09.081Z,89152.97
2022-08-23T17:28:36.398Z,89153.34
2022-08-23T17:31:04.262Z,89158.72
2022-08-23T17:33:31.193Z,89162.78
2022-08-23T17:35:58.160Z,89162.59
2022-08-23T17:38:25.046Z,89169.25
2022-08-23T17:40:52.370Z,89173.31
2022-08-23T17:43:19.258Z,89164.53
2022-08-23T17:45:49.949Z,89165.13
2022-08-23T17:48:19.679Z,89167.16
2022-08-23T17:50:47.652Z,89172.41
2022-08-23T17:53:15.791Z,89166.69
2022-08-23T17:55:43.614Z,89174.94
2022-08-23T17:58:11.269Z,89176.25
2022-08-23T18:00:39.688Z,89176.25
2022-08-23T18:03:07.175Z,89184.84
2022-08-23T18:05:36.772Z,89188.09
2022-08-23T18:08:03.774Z,89195.31
2022-08-23T18:10:30.890Z,89198.56
2022-08-23T18:12:58.047Z,89204.06
2022-08-23T18:15:26.121Z,89208.22
2022-08-23T18:17:56.383Z,89208.97
2022-08-23T18:20:27.086Z,89214.56
2022-08-23T18:22:58.238Z,89220.41
2022-08-23T18:25:26.113Z,89211.34
2022-08-23T18:27:53.190Z,89224.22
2022-08-23T18:30:20.854Z,89220.41
2022-08-23T18:32:47.715Z,89219.09
2022-08-23T18:35:14.689Z,89213.94
2022-08-23T18:37:41.731Z,89218.00
2022-08-23T18:40:10.163Z,89218.22
2022-08-23T18:42:38.560Z,89219.41
2022-08-23T18:45:06.360Z,89221.06
2022-08-23T18:47:33.700Z,89235.84
2022-08-23T18:50:00.733Z,89229.75
2022-08-23T18:52:31.070Z,89232.00
2022-08-23T18:54:58.698Z,89222.69
2022-08-23T18:57:25.712Z,89229.59
2022-08-23T18:59:52.752Z,89224.78
2022-08-23T19:02:19.779Z,89231.00
2022-08-23T19:04:46.755Z,89234.06
2022-08-23T19:07:13.721Z,89233.22
2022-08-23T19:09:40.643Z,89242.34
2022-08-23T19:12:08.213Z,89240.66
2022-08-23T19:14:35.169Z,89244.69
2022-08-23T19:17:06.105Z,89243.25
2022-08-23T19:19:33.018Z,89240.66
2022-08-23T19:22:00.337Z,89237.78
2022-08-23T19:24:27.518Z,89239.22
2022-08-23T19:26:54.481Z,89250.41
2022-08-23T19:29:21.856Z,89243.94
2022-08-23T19:31:49.441Z,89238.06
2022-08-23T19:34:19.258Z,89239.97
2022-08-23T19:36:52.944Z,89245.50
2022-08-23T19:39:27.695Z,89236.91
2022-08-23T19:41:54.613Z,89238.34
2022-08-23T19:44:21.545Z,89244.16
2022-08-23T19:46:48.561Z,89236.38
2022-08-23T19:49:16.049Z,89242.78
2022-08-23T19:51:44.198Z,89240.81
2022-08-23T19:54:12.024Z,89240.97
2022-08-23T19:56:45.955Z,89248.66
2022-08-23T19:59:16.827Z,89250.69
2022-08-23T20:01:43.729Z,89248.72
2022-08-23T20:04:10.843Z,89243.97
2022-08-23T20:06:37.717Z,89236.06
2022-08-23T20:09:06.252Z,89234.50
2022-08-23T20:11:33.531Z,89236.09
2022-08-23T20:14:01.136Z,89230.56
2022-08-23T20:16:29.323Z,89232.28
2022-08-23T20:18:56.677Z,89223.09
2022-08-23T20:21:24.130Z,89225.38
2022-08-23T20:23:52.653Z,89224.22
2022-08-23T20:26:19.735Z,89218.50
2022-08-23T20:28:59.068Z,89235.78
2022-08-23T20:31:32.706Z,89230.19
2022-08-23T20:34:00.519Z,89232.22
2022-08-23T20:36:27.897Z,89231.38
2022-08-23T20:38:59.445Z,89229.50
2022-08-23T20:41:33.277Z,89232.97
2022-08-23T20:44:00.950Z,89224.91
2022-08-23T20:46:28.672Z,89217.31
2022-08-23T20:48:56.056Z,89225.97
2022-08-23T20:51:23.868Z,89214.75
2022-08-23T20:53:50.824Z,89226.97
2022-08-23T20:56:18.069Z,89216.78
2022-08-23T20:58:47.732Z,89222.69
2022-08-23T21:01:14.881Z,89221.22
2022-08-23T21:03:41.877Z,89219.97
2022-08-23T21:06:21.860Z,89216.50
2022-08-23T21:08:53.676Z,89219.38
2022-08-23T21:11:21.767Z,89214.19
2022-08-23T21:13:48.980Z,89205.84
2022-08-23T21:16:17.253Z,89203.00
2022-08-23T21:18:44.396Z,89196.50
2022-08-23T21:21:11.539Z,89205.41
2022-08-23T21:23:39.146Z,89207.75
2022-08-23T21:26:07.310Z,89206.44
2022-08-23T21:28:35.231Z,89205.13
2022-08-23T21:31:17.884Z,89206.84
2022-08-23T21:33:45.791Z,89210.19
2022-08-23T21:36:14.203Z,89213.03
2022-08-23T21:38:41.682Z,89207.75
2022-08-23T21:41:12.004Z,89211.03
2022-08-23T21:43:39.607Z,89206.56
2022-08-23T21:46:07.041Z,89215.47
2022-08-23T21:48:34.034Z,89209.31
2022-08-23T21:51:01.249Z,89206.13
2022-08-23T21:53:28.143Z,89205.56
2022-08-23T21:55:55.036Z,89211.88
2022-08-23T21:58:21.987Z,89204.81
2022-08-23T22:00:49.061Z,89202.13
2022-08-23T22:03:15.974Z,89209.16
2022-08-23T22:05:44.557Z,89206.72
2022-08-23T22:08:14.173Z,89200.09
2022-08-23T22:10:44.126Z,89198.09
2022-08-23T22:13:19.107Z,89200.09
2022-08-23T22:15:45.973Z,89185.47
2022-08-23T22:18:12.795Z,89194.81
2022-08-23T22:20:39.814Z,89189.19
2022-08-23T22:23:06.673Z,89192.25
2022-08-23T22:25:33.460Z,89192.66
2022-08-23T22:28:00.496Z,89195.69
2022-08-23T22:30:27.375Z,89189.09
2022-08-23T22:32:54.244Z,89183.91
2022-08-23T22:35:21.060Z,89184.50
2022-08-23T22:38:10.204Z,89188.38
2022-08-23T22:40:34.949Z,89184.22
2022-08-23T22:43:01.828Z,89181.06
2022-08-23T22:45:28.617Z,89176.19
2022-08-23T22:47:55.792Z,89177.31
2022-08-23T22:50:22.591Z,89180.63
2022-08-23T22:52:49.535Z,89175.16
2022-08-23T22:55:16.434Z,89173.75
2022-08-23T22:57:43.524Z,89173.47
2022-08-23T23:00:11.324Z,89172.75
2022-08-23T23:02:39.015Z,89169.13
2022-08-23T23:05:08.092Z,89167.28
2022-08-23T23:07:35.014Z,89163.53
2022-08-23T23:10:02.055Z,89161.22
2022-08-23T23:12:29.140Z,89164.53
2022-08-23T23:14:56.058Z,89149.03
2022-08-23T23:17:23.051Z,89155.47
2022-08-23T23:19:49.988Z,89150.03
2022-08-23T23:22:16.874Z,89158.19
2022-08-23T23:24:43.798Z,89163.53
2022-08-23T23:27:10.659Z,89151.47
2022-08-23T23:29:37.576Z,89157.78
2022-08-23T23:32:04.844Z,89153.47
2022-08-23T23:34:31.714Z,89158.19
2022-08-23T23:36:59.336Z,89152.59
2022-08-23T23:39:27.633Z,89157.34
2022-08-23T23:41:55.333Z,89149.59
2022-08-23T23:44:31.192Z,89152.88
2022-08-23T23:46:59.646Z,89156.91
2022-08-23T23:49:32.591Z,89153.00
2022-08-23T23:52:01.180Z,89147.56
2022-08-23T23:54:28.045Z,89153.00
2022-08-23T23:56:55.002Z,89140.53
2022-08-23T23:59:21.979Z,89143.41
